createdAt,value
2019-06-26T00:00:29.549Z,5.60
2019-06-26T00:02:58.435Z,4.93
2019-06-26T00:05:27.852Z,5.43
2019-06-26T00:07:57.334Z,4.78
2019-06-26T00:10:26.710Z,4.78
2019-06-26T00:12:55.855Z,4.45
2019-06-26T00:15:25.163Z,5.58
2019-06-26T00:17:54.039Z,5.60
2019-06-26T00:20:26.017Z,5.10
2019-06-26T00:22:54.894Z,5.22
2019-06-26T00:25:24.915Z,5.25
2019-06-26T00:27:53.802Z,5.12
2019-06-26T00:30:22.695Z,5.07
2019-06-26T00:32:51.588Z,4.83
2019-06-26T00:35:20.478Z,5.53
2019-06-26T00:37:49.365Z,4.97
2019-06-26T00:40:18.358Z,5.10
2019-06-26T00:42:47.151Z,5.17
2019-06-26T00:45:16.619Z,4.83
2019-06-26T00:47:45.443Z,5.05
2019-06-26T00:50:14.746Z,4.67
2019-06-26T00:52:43.634Z,4.87
2019-06-26T00:55:13.552Z,5.40
2019-06-26T00:57:42.544Z,5.17
2019-06-26T01:00:13.995Z,5.67
2019-06-26T01:02:42.784Z,5.22
2019-06-26T01:05:13.842Z,5.14
2019-06-26T01:07:43.026Z,5.42
2019-06-26T01:10:13.769Z,5.12
2019-06-26T01:12:42.651Z,5.28
2019-06-26T01:15:12.669Z,5.12
2019-06-26T01:17:41.562Z,5.20
2019-06-26T01:20:14.243Z,5.10
2019-06-26T01:22:43.131Z,5.30
2019-06-26T01:25:13.645Z,5.25
2019-06-26T01:27:42.551Z,5.50
2019-06-26T01:30:12.245Z,5.83
2019-06-26T01:32:41.056Z,4.97
2019-06-26T01:35:10.576Z,5.53
2019-06-26T01:37:39.455Z,5.47
2019-06-26T01:40:09.056Z,5.62
2019-06-26T01:42:37.948Z,5.33
2019-06-26T01:45:08.081Z,5.53
2019-06-26T01:47:37.081Z,5.10
2019-06-26T01:50:07.362Z,5.77
2019-06-26T01:52:36.278Z,5.50
2019-06-26T01:55:08.989Z,5.87
2019-06-26T01:57:37.849Z,5.08
2019-06-26T02:00:10.685Z,5.58
2019-06-26T02:02:39.533Z,5.55
2019-06-26T02:05:09.007Z,5.35
2019-06-26T02:07:37.826Z,5.72
2019-06-26T02:10:08.018Z,5.80
2019-06-26T02:12:37.045Z,5.35
2019-06-26T02:15:07.803Z,5.70
2019-06-26T02:17:36.748Z,5.55
2019-06-26T02:20:09.526Z,5.30
2019-06-26T02:22:38.334Z,5.78
2019-06-26T02:25:07.522Z,5.30
2019-06-26T02:27:36.631Z,6.08
2019-06-26T02:30:07.533Z,5.47
2019-06-26T02:32:36.566Z,5.83
2019-06-26T02:35:09.821Z,5.70
2019-06-26T02:37:37.794Z,5.33
2019-06-26T02:40:07.616Z,5.60
2019-06-26T02:42:36.428Z,5.08
2019-06-26T02:45:06.797Z,4.95
2019-06-26T02:47:35.957Z,5.97
2019-06-26T02:50:07.150Z,6.15
2019-06-26T02:52:36.090Z,5.35
2019-06-26T02:55:07.472Z,6.30
2019-06-26T02:57:36.355Z,6.00
2019-06-26T03:00:07.210Z,5.58
2019-06-26T03:02:36.062Z,5.85
2019-06-26T03:05:06.759Z,5.10
2019-06-26T03:07:37.223Z,5.87
2019-06-26T03:10:08.009Z,6.50
2019-06-26T03:12:36.949Z,5.85
2019-06-26T03:15:09.892Z,6.25
2019-06-26T03:17:54.053Z,5.95
2019-06-26T03:20:10.391Z,5.90
2019-06-26T03:22:39.272Z,6.17
2019-06-26T03:25:09.191Z,5.12
2019-06-26T03:27:38.079Z,5.62
2019-06-26T03:30:09.025Z,5.85
2019-06-26T03:32:37.909Z,6.25
2019-06-26T03:35:07.097Z,6.03
2019-06-26T03:37:36.010Z,5.83
2019-06-26T03:40:06.524Z,5.25
2019-06-26T03:42:35.421Z,6.35
2019-06-26T03:45:06.052Z,5.72
2019-06-26T03:47:34.944Z,5.45
2019-06-26T03:50:05.063Z,5.72
2019-06-26T03:52:33.956Z,5.53
2019-06-26T03:55:02.845Z,5.35
2019-06-26T03:57:35.164Z,6.37
2019-06-26T04:00:02.425Z,6.10
2019-06-26T04:02:31.348Z,6.77
2019-06-26T04:05:00.334Z,6.55
2019-06-26T04:07:29.251Z,5.90
2019-06-26T04:09:58.143Z,5.95
2019-06-26T04:12:27.031Z,5.87
2019-06-26T04:14:55.922Z,5.10
2019-06-26T04:17:24.815Z,5.87
2019-06-26T04:19:53.704Z,6.20
2019-06-26T04:22:22.596Z,5.90
2019-06-26T04:24:51.487Z,6.53
2019-06-26T04:27:22.030Z,6.10
2019-06-26T04:29:50.912Z,6.33
2019-06-26T04:32:19.802Z,5.97
2019-06-26T04:34:48.691Z,6.28
2019-06-26T04:37:17.585Z,5.92
2019-06-26T04:39:46.474Z,5.30
2019-06-26T04:42:15.371Z,6.07
2019-06-26T04:44:44.276Z,5.70
2019-06-26T04:47:13.153Z,6.27
2019-06-26T04:49:43.682Z,5.62
2019-06-26T04:52:12.575Z,6.03
2019-06-26T04:54:41.463Z,6.30
2019-06-26T04:57:10.802Z,6.03
2019-06-26T04:59:39.755Z,6.40
2019-06-26T05:02:09.539Z,11.26
2019-06-26T05:04:38.465Z,6.10
2019-06-26T05:07:07.862Z,5.44
2019-06-26T05:09:36.784Z,5.85
2019-06-26T05:12:05.648Z,6.22
2019-06-26T05:14:34.547Z,5.67
2019-06-26T05:17:03.467Z,6.10
2019-06-26T05:19:32.524Z,5.92
2019-06-26T05:22:01.417Z,6.80
2019-06-26T05:24:30.307Z,6.47
2019-06-26T05:26:59.200Z,6.42
2019-06-26T05:29:28.092Z,6.05
2019-06-26T05:31:56.989Z,5.95
2019-06-26T05:34:25.872Z,5.47
2019-06-26T05:36:54.764Z,6.00
2019-06-26T05:39:23.759Z,6.03
2019-06-26T05:41:54.083Z,5.90
2019-06-26T05:44:22.973Z,6.25
2019-06-26T05:46:51.872Z,6.15
2019-06-26T05:49:20.776Z,6.53
2019-06-26T05:51:49.682Z,6.17
2019-06-26T05:54:18.542Z,6.20
2019-06-26T05:56:47.442Z,6.10
2019-06-26T05:59:16.325Z,6.53
2019-06-26T06:01:45.220Z,6.33
2019-06-26T06:04:14.109Z,6.23
2019-06-26T06:06:42.999Z,6.25
2019-06-26T06:09:11.993Z,6.74
2019-06-26T06:11:40.881Z,6.37
2019-06-26T06:14:10.182Z,6.53
2019-06-26T06:16:47.186Z,6.35
2019-06-26T06:19:09.613Z,6.85
2019-06-26T06:21:38.497Z,6.50
2019-06-26T06:24:07.986Z,6.46
2019-06-26T06:26:36.893Z,5.92
2019-06-26T06:29:05.991Z,6.73
2019-06-26T06:31:34.881Z,6.60
2019-06-26T06:34:03.775Z,6.80
2019-06-26T06:36:32.661Z,7.20
2019-06-26T06:39:05.082Z,6.65
2019-06-26T06:41:43.224Z,6.93
2019-06-26T06:44:11.116Z,6.83
2019-06-26T06:46:43.052Z,6.58
2019-06-26T06:49:12.582Z,5.97
2019-06-26T06:51:41.479Z,7.10
2019-06-26T06:54:12.722Z,6.08
2019-06-26T06:56:41.617Z,7.00
2019-06-26T06:59:10.809Z,6.37
2019-06-26T07:01:39.806Z,6.35
2019-06-26T07:04:11.277Z,6.20
2019-06-26T07:06:40.177Z,6.28
2019-06-26T07:09:10.211Z,6.28
2019-06-26T07:11:40.698Z,6.35
2019-06-26T07:14:10.715Z,5.92
2019-06-26T07:16:44.111Z,6.15
2019-06-26T07:19:14.439Z,6.90
2019-06-26T07:21:43.340Z,6.75
2019-06-26T07:24:12.224Z,5.90
2019-06-26T07:26:41.112Z,6.83
2019-06-26T07:29:10.721Z,7.17
2019-06-26T07:31:49.136Z,7.30
2019-06-26T07:34:18.236Z,7.55
2019-06-26T07:36:49.490Z,7.25
2019-06-26T07:39:18.563Z,7.58
2019-06-26T07:41:50.509Z,7.20
2019-06-26T07:44:20.860Z,7.30
2019-06-26T07:46:55.144Z,6.62
2019-06-26T07:49:24.170Z,7.47
2019-06-26T07:51:55.929Z,7.47
2019-06-26T07:54:24.828Z,7.25
2019-06-26T07:56:55.904Z,8.05
2019-06-26T07:59:29.720Z,8.70
2019-06-26T08:02:06.827Z,7.95
2019-06-26T08:04:35.650Z,8.40
2019-06-26T08:07:11.264Z,6.37
2019-06-26T08:09:42.861Z,7.97
2019-06-26T08:12:12.219Z,8.08
2019-06-26T08:14:46.050Z,7.28
2019-06-26T08:17:20.870Z,7.57
2019-06-26T08:19:55.113Z,6.95
2019-06-26T08:22:29.122Z,7.67
2019-06-26T08:25:00.300Z,7.28
2019-06-26T08:28:00.907Z,7.67
2019-06-26T08:30:34.727Z,6.77
2019-06-26T08:33:16.143Z,7.67
2019-06-26T08:35:48.594Z,7.35
2019-06-26T08:38:20.154Z,7.83
2019-06-26T08:40:53.149Z,7.85
2019-06-26T08:43:23.229Z,8.58
2019-06-26T08:45:55.009Z,7.50
2019-06-26T08:48:38.951Z,6.53
2019-06-26T08:50:56.660Z,7.58
2019-06-26T08:53:25.445Z,7.67
2019-06-26T08:55:54.351Z,7.72
2019-06-26T08:58:23.232Z,7.43
2019-06-26T09:00:52.126Z,7.83
2019-06-26T09:03:21.017Z,7.95
2019-06-26T09:05:49.904Z,7.97
2019-06-26T09:08:19.044Z,7.20
2019-06-26T09:10:48.013Z,7.80
2019-06-26T09:13:16.893Z,7.97
2019-06-26T09:15:49.615Z,7.50
2019-06-26T09:18:16.309Z,7.67
2019-06-26T09:20:46.941Z,7.58
2019-06-26T09:23:15.832Z,7.77
2019-06-26T09:25:44.805Z,7.47
2019-06-26T09:28:13.615Z,8.27
2019-06-26T09:30:42.516Z,8.03
2019-06-26T09:33:12.059Z,7.78
2019-06-26T09:35:43.248Z,7.03
2019-06-26T09:38:12.051Z,8.03
2019-06-26T09:40:40.940Z,7.17
2019-06-26T09:43:10.856Z,7.38
2019-06-26T09:45:39.800Z,7.87
2019-06-26T09:48:09.257Z,7.35
2019-06-26T09:50:38.397Z,7.40
2019-06-26T09:53:07.960Z,7.83
2019-06-26T09:55:38.283Z,7.83
2019-06-26T09:58:07.999Z,8.53
2019-06-26T10:00:39.936Z,7.75
2019-06-26T10:03:09.773Z,7.53
2019-06-26T10:05:38.664Z,7.87
2019-06-26T10:08:07.729Z,7.58
2019-06-26T10:10:36.753Z,7.92
2019-06-26T10:13:05.542Z,8.33
2019-06-26T10:15:34.461Z,7.67
2019-06-26T10:18:03.327Z,8.40
2019-06-26T10:20:32.216Z,7.78
2019-06-26T10:23:01.106Z,8.23
2019-06-26T10:25:30.001Z,8.33
2019-06-26T10:27:58.897Z,8.23
2019-06-26T10:30:27.779Z,8.80
2019-06-26T10:32:56.673Z,9.28
2019-06-26T10:35:25.594Z,8.15
2019-06-26T10:37:54.558Z,7.75
2019-06-26T10:40:23.554Z,8.68
2019-06-26T10:42:52.443Z,8.48
2019-06-26T10:45:21.443Z,8.23
2019-06-26T10:47:50.331Z,8.65
2019-06-26T10:50:19.422Z,8.80
2019-06-26T10:52:48.319Z,7.90
2019-06-26T10:55:18.453Z,8.40
2019-06-26T10:57:47.329Z,9.38
2019-06-26T11:00:17.888Z,8.97
2019-06-26T11:02:46.958Z,9.60
2019-06-26T11:05:16.467Z,8.28
2019-06-26T11:07:45.455Z,9.25
2019-06-26T11:10:15.846Z,9.05
2019-06-26T11:12:47.984Z,7.95
2019-06-26T11:15:15.206Z,9.13
2019-06-26T11:17:44.090Z,8.88
2019-06-26T11:20:13.699Z,8.88
2019-06-26T11:22:44.130Z,8.48
2019-06-26T11:25:13.754Z,8.18
2019-06-26T11:27:42.625Z,7.30
2019-06-26T11:30:13.328Z,9.20
2019-06-26T11:32:42.150Z,8.23
2019-06-26T11:35:11.555Z,7.58
2019-06-26T11:37:40.551Z,7.78
2019-06-26T11:40:10.745Z,7.83
2019-06-26T11:42:39.767Z,8.00
2019-06-26T11:45:10.544Z,7.54
2019-06-26T11:47:39.791Z,6.90
2019-06-26T11:50:09.676Z,8.05
2019-06-26T11:52:38.978Z,7.70
2019-06-26T11:55:10.501Z,7.70
2019-06-26T11:57:39.605Z,7.00
2019-06-26T12:00:13.038Z,8.78
2019-06-26T12:02:41.854Z,6.90
2019-06-26T12:05:14.344Z,8.03
2019-06-26T12:07:43.224Z,7.95
2019-06-26T12:10:13.140Z,8.55
2019-06-26T12:12:42.035Z,7.28
2019-06-26T12:15:13.648Z,8.08
2019-06-26T12:17:42.470Z,8.18
2019-06-26T12:20:19.403Z,8.48
2019-06-26T12:22:45.791Z,8.53
2019-06-26T12:25:14.792Z,8.45
2019-06-26T12:27:43.671Z,8.03
2019-06-26T12:30:13.394Z,7.55
2019-06-26T12:32:57.870Z,8.20
2019-06-26T12:35:15.567Z,7.72
2019-06-26T12:37:44.460Z,7.22
2019-06-26T12:40:14.160Z,6.58
2019-06-26T12:42:42.938Z,7.50
2019-06-26T12:45:12.886Z,8.18
2019-06-26T12:47:41.866Z,7.80
2019-06-26T12:50:14.239Z,8.30
2019-06-26T12:52:43.135Z,8.15
2019-06-26T12:55:13.146Z,8.08
2019-06-26T12:57:42.144Z,7.62
2019-06-26T13:00:12.648Z,7.58
2019-06-26T13:02:41.564Z,7.90
2019-06-26T13:05:11.479Z,7.44
2019-06-26T13:07:40.371Z,8.60
2019-06-26T13:10:11.014Z,7.76
2019-06-26T13:12:39.907Z,7.95
2019-06-26T13:15:09.995Z,7.33
2019-06-26T13:17:38.805Z,8.00
2019-06-26T13:20:10.965Z,7.37
2019-06-26T13:22:39.793Z,7.75
2019-06-26T13:25:09.643Z,7.80
2019-06-26T13:27:38.675Z,7.33
2019-06-26T13:30:08.079Z,8.60
2019-06-26T13:32:37.094Z,7.07
2019-06-26T13:35:07.181Z,7.80
2019-06-26T13:37:37.614Z,7.33
2019-06-26T13:40:08.208Z,8.43
2019-06-26T13:42:37.037Z,8.13
2019-06-26T13:45:07.388Z,8.03
2019-06-26T13:47:36.259Z,8.10
2019-06-26T13:50:08.972Z,7.47
2019-06-26T13:52:37.928Z,8.30
2019-06-26T13:55:07.434Z,7.95
2019-06-26T13:57:36.433Z,7.53
2019-06-26T14:00:10.450Z,8.00
2019-06-26T14:02:39.326Z,7.72
2019-06-26T14:05:09.536Z,7.66
2019-06-26T14:07:39.162Z,7.28
2019-06-26T14:10:09.306Z,7.65
2019-06-26T14:12:38.572Z,6.85
2019-06-26T14:15:08.295Z,7.70
2019-06-26T14:17:37.093Z,7.65
2019-06-26T14:20:06.677Z,6.85
2019-06-26T14:22:35.477Z,7.22
2019-06-26T14:25:05.925Z,6.87
2019-06-26T14:27:34.898Z,7.22
2019-06-26T14:30:05.127Z,7.28
2019-06-26T14:32:34.016Z,7.35
2019-06-26T14:35:03.313Z,7.33
2019-06-26T14:37:32.205Z,7.00
2019-06-26T14:40:01.107Z,6.20
2019-06-26T14:42:30.022Z,8.20
2019-06-26T14:44:58.878Z,6.87
2019-06-26T14:47:27.774Z,6.50
2019-06-26T14:49:56.664Z,7.30
2019-06-26T14:52:25.591Z,7.23
2019-06-26T14:54:54.446Z,7.65
2019-06-26T14:57:25.954Z,7.20
2019-06-26T14:59:53.968Z,6.90
2019-06-26T15:02:22.860Z,7.33
2019-06-26T15:04:51.752Z,7.08
2019-06-26T15:07:20.644Z,7.10
2019-06-26T15:09:50.475Z,7.50
2019-06-26T15:12:19.348Z,7.03
2019-06-26T15:14:48.248Z,7.35
2019-06-26T15:17:18.664Z,6.72
2019-06-26T15:19:48.991Z,6.90
2019-06-26T15:22:19.421Z,6.85
2019-06-26T15:24:48.624Z,7.10
2019-06-26T15:27:17.513Z,7.10
2019-06-26T15:29:46.596Z,7.47
2019-06-26T15:32:15.450Z,7.30
2019-06-26T15:34:44.321Z,6.72
2019-06-26T15:37:13.183Z,6.83
2019-06-26T15:39:42.075Z,6.90
2019-06-26T15:42:12.087Z,6.30
2019-06-26T15:44:40.980Z,6.33
2019-06-26T15:47:10.689Z,7.16
2019-06-26T15:49:39.579Z,6.62
2019-06-26T15:52:14.888Z,6.66
2019-06-26T15:54:39.615Z,5.60
2019-06-26T15:57:08.609Z,5.92
2019-06-26T15:59:37.501Z,6.37
2019-06-26T16:02:07.827Z,5.78
2019-06-26T16:04:36.717Z,5.92
2019-06-26T16:07:05.662Z,6.40
2019-06-26T16:09:36.256Z,5.40
2019-06-26T16:12:05.133Z,6.28
2019-06-26T16:14:34.025Z,5.78
2019-06-26T16:17:10.636Z,6.00
2019-06-26T16:19:39.489Z,5.33
2019-06-26T16:22:08.789Z,5.95
2019-06-26T16:24:37.681Z,5.87
2019-06-26T16:27:06.590Z,5.65
2019-06-26T16:29:35.465Z,5.45
2019-06-26T16:32:04.262Z,5.85
2019-06-26T16:34:33.145Z,6.17
2019-06-26T16:37:02.038Z,6.60
2019-06-26T16:39:30.927Z,5.57
2019-06-26T16:41:59.928Z,5.92
2019-06-26T16:44:28.821Z,6.20
2019-06-26T16:46:59.319Z,6.35
2019-06-26T16:49:28.334Z,6.23
2019-06-26T16:51:57.231Z,5.65
2019-06-26T16:54:26.122Z,6.25
2019-06-26T16:56:55.034Z,6.60
2019-06-26T16:59:23.902Z,5.47
2019-06-26T17:01:52.999Z,5.92
2019-06-26T17:04:21.992Z,6.43
2019-06-26T17:06:50.980Z,6.65
2019-06-26T17:09:19.875Z,6.30
2019-06-26T17:11:48.870Z,6.07
2019-06-26T17:14:17.763Z,6.43
2019-06-26T17:16:46.652Z,5.60
2019-06-26T17:19:15.544Z,6.03
2019-06-26T17:21:44.436Z,6.33
2019-06-26T17:24:14.590Z,6.53
2019-06-26T17:26:44.810Z,5.95
2019-06-26T17:29:13.675Z,5.97
2019-06-26T17:31:42.561Z,6.17
2019-06-26T17:34:11.876Z,6.53
2019-06-26T17:36:40.757Z,7.42
2019-06-26T17:39:10.465Z,6.17
2019-06-26T17:41:43.987Z,6.30
2019-06-26T17:44:12.038Z,5.52
2019-06-26T17:46:40.929Z,6.78
2019-06-26T17:49:10.744Z,6.28
2019-06-26T17:51:39.633Z,5.90
2019-06-26T17:54:09.037Z,6.36
2019-06-26T17:56:37.941Z,6.10
2019-06-26T17:59:07.534Z,6.06
2019-06-26T18:01:36.426Z,6.47
2019-06-26T18:04:06.143Z,6.50
2019-06-26T18:06:35.235Z,6.40
2019-06-26T18:09:06.297Z,6.72
2019-06-26T18:11:35.185Z,6.12
2019-06-26T18:14:04.060Z,7.00
2019-06-26T18:16:32.949Z,5.78
2019-06-26T18:19:02.061Z,6.50
2019-06-26T18:21:31.127Z,7.33
2019-06-26T18:23:59.931Z,6.78
2019-06-26T18:26:28.924Z,6.83
2019-06-26T18:28:57.819Z,6.60
2019-06-26T18:31:26.723Z,6.85
2019-06-26T18:33:55.600Z,6.67
2019-06-26T18:36:24.490Z,6.70
2019-06-26T18:38:53.384Z,6.55
2019-06-26T18:41:22.277Z,6.83
2019-06-26T18:43:51.189Z,7.10
2019-06-26T18:46:20.058Z,6.90
2019-06-26T18:48:48.949Z,6.62
2019-06-26T18:51:17.837Z,7.42
2019-06-26T18:53:53.536Z,7.00
2019-06-26T18:56:17.445Z,7.37
2019-06-26T18:58:46.354Z,6.62
2019-06-26T19:01:15.247Z,6.70
2019-06-26T19:03:44.242Z,7.53
2019-06-26T19:06:13.132Z,7.62
2019-06-26T19:08:42.433Z,7.60
2019-06-26T19:11:12.348Z,8.68
2019-06-26T19:13:41.240Z,7.25
2019-06-26T19:16:10.746Z,8.30
2019-06-26T19:18:39.640Z,7.50
2019-06-26T19:21:09.553Z,7.68
2019-06-26T19:23:38.444Z,8.00
2019-06-26T19:26:07.849Z,7.83
2019-06-26T19:28:36.746Z,8.58
2019-06-26T19:31:05.632Z,8.88
2019-06-26T19:33:34.530Z,8.35
2019-06-26T19:36:03.412Z,8.00
2019-06-26T19:38:32.456Z,8.20
2019-06-26T19:41:01.330Z,7.72
2019-06-26T19:43:30.295Z,8.03
2019-06-26T19:45:59.084Z,9.73
2019-06-26T19:48:27.973Z,9.20
2019-06-26T19:50:56.863Z,9.13
2019-06-26T19:53:26.884Z,8.90
2019-06-26T19:55:55.774Z,8.63
2019-06-26T19:58:24.665Z,8.83
2019-06-26T20:00:53.561Z,8.55
2019-06-26T20:03:22.551Z,8.48
2019-06-26T20:05:51.441Z,8.55
2019-06-26T20:08:21.767Z,8.67
2019-06-26T20:10:50.657Z,8.83
2019-06-26T20:13:19.548Z,7.37
2019-06-26T20:15:48.443Z,8.53
2019-06-26T20:18:17.333Z,7.80
2019-06-26T20:20:46.222Z,7.90
2019-06-26T20:23:15.121Z,8.25
2019-06-26T20:25:44.109Z,8.65
2019-06-26T20:28:12.997Z,7.73
2019-06-26T20:30:41.892Z,8.25
2019-06-26T20:33:11.294Z,8.00
2019-06-26T20:35:41.697Z,8.15
2019-06-26T20:38:10.817Z,8.23
2019-06-26T20:40:39.707Z,8.73
2019-06-26T20:43:09.527Z,9.26
2019-06-26T20:45:38.413Z,8.50
2019-06-26T20:48:07.716Z,8.86
2019-06-26T20:50:36.608Z,8.60
2019-06-26T20:53:05.398Z,7.10
2019-06-26T20:55:34.495Z,8.45
2019-06-26T20:58:03.381Z,7.80
2019-06-26T21:00:32.273Z,7.73
2019-06-26T21:03:01.165Z,8.30
2019-06-26T21:05:30.057Z,9.13
2019-06-26T21:07:58.947Z,8.15
2019-06-26T21:10:27.840Z,7.43
2019-06-26T21:12:57.755Z,7.70
2019-06-26T21:15:26.646Z,8.20
2019-06-26T21:17:55.537Z,7.50
2019-06-26T21:20:24.429Z,8.28
2019-06-26T21:22:53.319Z,7.42
2019-06-26T21:25:22.519Z,7.70
2019-06-26T21:27:51.412Z,6.97
2019-06-26T21:30:20.403Z,7.50
2019-06-26T21:32:49.302Z,7.53
2019-06-26T21:35:18.393Z,7.70
2019-06-26T21:37:47.181Z,7.37
2019-06-26T21:40:16.175Z,6.60
2019-06-26T21:42:45.106Z,7.70
2019-06-26T21:45:14.467Z,7.22
2019-06-26T21:47:43.360Z,8.38
2019-06-26T21:50:12.764Z,7.08
2019-06-26T21:52:41.660Z,7.12
2019-06-26T21:55:12.597Z,7.82
2019-06-26T21:57:41.493Z,7.00
2019-06-26T22:00:12.278Z,7.92
2019-06-26T22:02:41.267Z,8.08
2019-06-26T22:05:10.937Z,8.50
2019-06-26T22:07:39.816Z,7.62
2019-06-26T22:10:09.943Z,8.30
2019-06-26T22:12:38.832Z,7.22
2019-06-26T22:15:08.121Z,7.53
2019-06-26T22:17:37.021Z,8.03
2019-06-26T22:20:11.230Z,6.60
2019-06-26T22:22:38.080Z,6.92
2019-06-26T22:25:08.868Z,6.90
2019-06-26T22:27:37.808Z,7.60
2019-06-26T22:30:10.069Z,6.92
2019-06-26T22:32:38.969Z,6.70
2019-06-26T22:35:08.271Z,6.78
2019-06-26T22:37:37.162Z,6.28
2019-06-26T22:40:06.750Z,6.30
2019-06-26T22:42:35.557Z,6.83
2019-06-26T22:45:05.442Z,7.03
2019-06-26T22:47:34.471Z,6.40
2019-06-26T22:50:03.992Z,7.60
2019-06-26T22:52:32.968Z,6.65
2019-06-26T22:55:01.861Z,6.90
2019-06-26T22:57:30.752Z,6.50
2019-06-26T22:59:59.662Z,6.50
2019-06-26T23:02:28.536Z,7.47
2019-06-26T23:04:57.437Z,6.73
2019-06-26T23:07:26.419Z,7.45
2019-06-26T23:09:55.313Z,6.85
2019-06-26T23:12:24.201Z,6.77
2019-06-26T23:14:53.198Z,6.30
2019-06-26T23:17:22.092Z,6.85
2019-06-26T23:19:50.982Z,7.08
2019-06-26T23:22:19.869Z,7.13
2019-06-26T23:24:48.761Z,7.08
2019-06-26T23:27:17.658Z,7.10
2019-06-26T23:29:46.447Z,5.85
2019-06-26T23:32:15.333Z,6.13
2019-06-26T23:34:44.225Z,6.33
2019-06-26T23:37:13.115Z,6.87
2019-06-26T23:39:42.011Z,6.45
2019-06-26T23:42:11.211Z,6.50
2019-06-26T23:44:40.122Z,6.55
2019-06-26T23:47:09.502Z,6.87
2019-06-26T23:49:39.829Z,7.53
2019-06-26T23:52:08.922Z,7.42
2019-06-26T23:54:37.816Z,6.33
2019-06-26T23:57:06.711Z,6.70
2019-06-26T23:59:35.596Z,6.17
